Wetterdaten: Freitag, 29.05.2015
Datum Zeit Auen-Temp. Temp gefhlt Luftfeuchte Luftdruck Regen Wind Richtung Richtung Taupunkt Windben
29.05.2015 00:00 10,9 C 10,9 C 58 % 1015,5 hPa 0,0 mm 7,3 km/h (2 Bft) SW 225 3,0 C 12,4 km/h (3 Bft)
29.05.2015 00:05 10,9 C 10,9 C 58 % 1015,5 hPa 0,0 mm 7,5 km/h (2 Bft) SW 225 3,0 C 9,8 km/h (2 Bft)
29.05.2015 00:10 10,8 C 10,9 C 57 % 1015,5 hPa 0,0 mm 8,8 km/h (2 Bft) SW 225 2,6 C 14,5 km/h (3 Bft)
29.05.2015 00:15 10,7 C 10,7 C 58 % 1015,5 hPa 0,0 mm 9,8 km/h (2 Bft) W-SW 247 2,8 C 11,7 km/h (2 Bft)
29.05.2015 00:20 10,7 C 10,7 C 58 % 1015,6 hPa 0,0 mm 10,1 km/h (2 Bft) SW 225 2,8 C 11,1 km/h (2 Bft)
29.05.2015 00:25 10,4 C 10,4 C 58 % 1015,6 hPa 0,0 mm 9,1 km/h (2 Bft) S 180 2,5 C 16,1 km/h (3 Bft)
29.05.2015 00:30 10,4 C 10,5 C 59 % 1015,6 hPa 0,0 mm 8,5 km/h (2 Bft) S-SW 202 2,7 C 11,1 km/h (2 Bft)
29.05.2015 00:35 10,7 C 10,7 C 59 % 1015,6 hPa 0,0 mm 8,8 km/h (2 Bft) W-SW 247 3,0 C 8,3 km/h (2 Bft)
29.05.2015 00:40 10,5 C 10,7 C 59 % 1015,5 hPa 0,0 mm 7,8 km/h (2 Bft) W-SW 247 2,8 C 13,7 km/h (3 Bft)
29.05.2015 00:45 10,3 C 10,6 C 59 % 1015,5 hPa 0,0 mm 7,8 km/h (2 Bft) S-SW 202 2,6 C 9,6 km/h (2 Bft)
29.05.2015 00:50 10,0 C 10,3 C 59 % 1015,5 hPa 0,0 mm 9,1 km/h (2 Bft) S 180 2,4 C 11,4 km/h (2 Bft)
29.05.2015 00:55 9,7 C 10,2 C 60 % 1015,5 hPa 0,0 mm 8,5 km/h (2 Bft) SW 225 2,3 C 7,8 km/h (2 Bft)
29.05.2015 01:00 9,3 C 9,9 C 61 % 1015,4 hPa 0,0 mm 7,3 km/h (2 Bft) SW 225 2,2 C 10,4 km/h (2 Bft)
29.05.2015 01:05 9,0 C 9,8 C 62 % 1015,4 hPa 0,0 mm 6,2 km/h (2 Bft) SW 225 2,1 C 5,4 km/h (1 Bft)
29.05.2015 01:10 8,9 C 9,3 C 63 % 1015,4 hPa 0,0 mm 4,7 km/h (1 Bft) SW 225 2,2 C 6,7 km/h (2 Bft)
29.05.2015 01:15 8,9 C 9,2 C 65 % 1015,4 hPa 0,0 mm 4,1 km/h (1 Bft) S 180 2,7 C 3,9 km/h (1 Bft)
29.05.2015 01:20 8,7 C 8,9 C 64 % 1015,2 hPa 0,0 mm 3,1 km/h (1 Bft) S 180 2,3 C 4,4 km/h (1 Bft)
29.05.2015 01:25 8,6 C 8,8 C 65 % 1015,2 hPa 0,0 mm 1,8 km/h (1 Bft) SO 135 2,4 C 3,6 km/h (1 Bft)
29.05.2015 01:30 8,9 C 8,9 C 65 % 1015,2 hPa 0,0 mm 1,6 km/h (1 Bft) S-SO 157 2,7 C 0,0 km/h (0 Bft)
29.05.2015 01:35 8,8 C 8,7 C 66 % 1015,2 hPa 0,0 mm 1,0 km/h (0 Bft) S-SO 157 2,8 C 0,0 km/h (0 Bft)
29.05.2015 01:40 8,9 C 8,7 C 66 % 1015,3 hPa 0,0 mm 0,8 km/h (0 Bft) S-SO 157 2,9 C 0,0 km/h (0 Bft)
29.05.2015 01:45 8,7 C 8,6 C 66 % 1015,3 hPa 0,0 mm 1,0 km/h (0 Bft) S 180 2,7 C 0,0 km/h (0 Bft)
29.05.2015 01:50 8,5 C 8,5 C 67 % 1015,3 hPa 0,0 mm 0,5 km/h (0 Bft) S 180 2,7 C 3,4 km/h (1 Bft)
29.05.2015 01:55 8,3 C 8,4 C 67 % 1015,3 hPa 0,0 mm 0,8 km/h (0 Bft) SW 225 2,5 C 4,1 km/h (1 Bft)
29.05.2015 02:00 8,1 C 8,2 C 67 % 1015,0 hPa 0,0 mm 0,5 km/h (0 Bft) S-SO 157 2,3 C 0,0 km/h (0 Bft)
29.05.2015 02:05 8,1 C 8,1 C 68 % 1015,0 hPa 0,0 mm 0,5 km/h (0 Bft) S 180 2,6 C 0,0 km/h (0 Bft)
29.05.2015 02:10 8,1 C 8,0 C 68 % 1015,0 hPa 0,0 mm 0,3 km/h (0 Bft) S-SO 157 2,6 C 0,0 km/h (0 Bft)
29.05.2015 02:15 8,1 C 7,9 C 68 % 1015,0 hPa 0,0 mm 0,3 km/h (0 Bft) S-SO 157 2,6 C 0,0 km/h (0 Bft)
29.05.2015 02:20 7,5 C 7,4 C 68 % 1015,2 hPa 0,0 mm 0,3 km/h (0 Bft) NO 45 2,0 C 0,0 km/h (0 Bft)
29.05.2015 02:25 7,3 C 7,2 C 68 % 1015,2 hPa 0,0 mm 0,3 km/h (0 Bft) N-NW 337 1,8 C 0,0 km/h (0 Bft)
29.05.2015 02:30 7,4 C 7,2 C 69 % 1015,2 hPa 0,0 mm 0,0 km/h (0 Bft) S-SO 157 2,1 C 0,0 km/h (0 Bft)
29.05.2015 02:35 7,2 C 7,0 C 70 % 1015,2 hPa 0,0 mm 0,0 km/h (0 Bft) O-SO 112 2,1 C 0,0 km/h (0 Bft)
29.05.2015 02:40 7,0 C 6,8 C 70 % 1015,0 hPa 0,0 mm 0,0 km/h (0 Bft) S 180 1,9 C 0,0 km/h (0 Bft)
29.05.2015 02:45 6,9 C 6,7 C 70 % 1015,0 hPa 0,0 mm 0,5 km/h (0 Bft) SO 135 1,8 C 0,0 km/h (0 Bft)
29.05.2015 02:50 6,7 C 6,5 C 72 % 1015,0 hPa 0,0 mm 0,5 km/h (0 Bft) SO 135 2,0 C 0,0 km/h (0 Bft)
29.05.2015 02:55 6,3 C 6,2 C 71 % 1015,0 hPa 0,0 mm 0,0 km/h (0 Bft) N-NO 22 1,4 C 0,0 km/h (0 Bft)
29.05.2015 03:00 6,5 C 6,2 C 73 % 1014,9 hPa 0,0 mm 0,0 km/h (0 Bft) O 90 2,0 C 0,0 km/h (0 Bft)
29.05.2015 03:05 6,6 C 6,3 C 74 % 1014,9 hPa 0,0 mm 0,0 km/h (0 Bft) S-SO 157 2,3 C 0,0 km/h (0 Bft)
29.05.2015 03:10 6,6 C 6,3 C 72 % 1014,9 hPa 0,0 mm 0,5 km/h (0 Bft) SW 225 1,9 C 3,6 km/h (1 Bft)
29.05.2015 03:15 6,6 C 6,3 C 75 % 1014,9 hPa 0,0 mm 1,3 km/h (1 Bft) S 180 2,5 C 3,4 km/h (1 Bft)
29.05.2015 03:20 6,6 C 6,5 C 75 % 1014,9 hPa 0,0 mm 2,1 km/h (1 Bft) S 180 2,5 C 4,9 km/h (1 Bft)
29.05.2015 03:25 6,7 C 6,5 C 75 % 1014,9 hPa 0,0 mm 1,3 km/h (1 Bft) S 180 2,6 C 0,0 km/h (0 Bft)
29.05.2015 03:30 6,9 C 6,8 C 73 % 1014,9 hPa 0,0 mm 0,8 km/h (0 Bft) S 180 2,4 C 0,0 km/h (0 Bft)
29.05.2015 03:35 7,1 C 7,1 C 73 % 1014,9 hPa 0,0 mm 1,8 km/h (1 Bft) S 180 2,6 C 4,9 km/h (1 Bft)
29.05.2015 03:40 7,2 C 7,2 C 73 % 1014,6 hPa 0,0 mm 4,4 km/h (1 Bft) S 180 2,7 C 4,1 km/h (1 Bft)
29.05.2015 03:45 7,2 C 7,2 C 73 % 1014,6 hPa 0,0 mm 4,1 km/h (1 Bft) S 180 2,7 C 3,9 km/h (1 Bft)
29.05.2015 03:50 7,1 C 7,1 C 74 % 1014,6 hPa 0,0 mm 1,8 km/h (1 Bft) S 180 2,8 C 3,1 km/h (1 Bft)
29.05.2015 03:55 6,9 C 6,9 C 75 % 1014,6 hPa 0,0 mm 1,3 km/h (1 Bft) S-SO 157 2,8 C 0,0 km/h (0 Bft)
29.05.2015 04:00 7,1 C 7,1 C 73 % 1014,6 hPa 0,0 mm 0,8 km/h (0 Bft) S 180 2,6 C 2,8 km/h (1 Bft)
29.05.2015 04:05 7,1 C 7,0 C 75 % 1014,6 hPa 0,0 mm 0,3 km/h (0 Bft) SO 135 3,0 C 0,0 km/h (0 Bft)
29.05.2015 04:10 6,6 C 6,5 C 74 % 1014,6 hPa 0,0 mm 0,3 km/h (0 Bft) S 180 2,3 C 2,6 km/h (1 Bft)
29.05.2015 04:15 6,9 C 6,7 C 75 % 1014,6 hPa 0,0 mm 0,0 km/h (0 Bft) S 180 2,8 C 0,0 km/h (0 Bft)
29.05.2015 04:20 7,3 C 7,0 C 75 % 1014,3 hPa 0,0 mm 0,5 km/h (0 Bft) S-SO 157 3,2 C 2,6 km/h (1 Bft)
29.05.2015 04:25 7,4 C 7,1 C 75 % 1014,3 hPa 0,0 mm 0,5 km/h (0 Bft) S-SO 157 3,3 C 0,0 km/h (0 Bft)
29.05.2015 04:30 7,6 C 7,3 C 74 % 1014,3 hPa 0,0 mm 0,8 km/h (0 Bft) SO 135 3,3 C 3,1 km/h (1 Bft)
29.05.2015 04:35 7,6 C 7,4 C 73 % 1014,3 hPa 0,0 mm 0,3 km/h (0 Bft) S 180 3,1 C 0,0 km/h (0 Bft)
29.05.2015 04:40 7,5 C 7,3 C 73 % 1014,3 hPa 0,0 mm 0,5 km/h (0 Bft) S-SO 157 3,0 C 0,0 km/h (0 Bft)
29.05.2015 04:45 7,2 C 7,1 C 73 % 1014,3 hPa 0,0 mm 0,5 km/h (0 Bft) S-SO 157 2,7 C 0,0 km/h (0 Bft)
29.05.2015 04:50 6,6 C 6,5 C 73 % 1014,3 hPa 0,0 mm 0,0 km/h (0 Bft) SO 135 2,1 C 0,0 km/h (0 Bft)
29.05.2015 04:55 6,3 C 6,2 C 73 % 1014,3 hPa 0,0 mm 0,0 km/h (0 Bft) O-NO 67 1,8 C 0,0 km/h (0 Bft)
29.05.2015 05:00 6,1 C 6,0 C 73 % 1014,1 hPa 0,0 mm 0,0 km/h (0 Bft) O-NO 67 1,6 C 0,0 km/h (0 Bft)
29.05.2015 05:05 6,0 C 5,9 C 74 % 1014,1 hPa 0,0 mm 0,0 km/h (0 Bft) NO 45 1,7 C 0,0 km/h (0 Bft)
29.05.2015 05:10 6,1 C 5,8 C 75 % 1014,1 hPa 0,0 mm 0,0 km/h (0 Bft) NW 315 2,0 C 2,8 km/h (1 Bft)
29.05.2015 05:15 6,0 C 5,8 C 75 % 1014,1 hPa 0,0 mm 0,0 km/h (0 Bft) N-NW 337 1,9 C 0,0 km/h (0 Bft)
29.05.2015 05:20 5,9 C 5,7 C 76 % 1014,3 hPa 0,0 mm 0,3 km/h (0 Bft) W-SW 247 2,0 C 0,0 km/h (0 Bft)
29.05.2015 05:25 6,1 C 5,8 C 75 % 1014,3 hPa 0,0 mm 0,0 km/h (0 Bft) W-SW 247 2,0 C 0,0 km/h (0 Bft)
29.05.2015 05:30 6,2 C 6,0 C 76 % 1014,3 hPa 0,0 mm 0,0 km/h (0 Bft) SW 225 2,3 C 0,0 km/h (0 Bft)
29.05.2015 05:35 5,9 C 5,8 C 77 % 1014,3 hPa 0,0 mm 0,3 km/h (0 Bft) NW 315 2,2 C 0,0 km/h (0 Bft)
29.05.2015 05:40 6,1 C 5,9 C 77 % 1014,2 hPa 0,0 mm 0,3 km/h (0 Bft) N-NW 337 2,4 C 0,0 km/h (0 Bft)
29.05.2015 05:45 6,0 C 5,8 C 76 % 1014,2 hPa 0,0 mm 0,0 km/h (0 Bft) N-NW 337 2,1 C 0,0 km/h (0 Bft)
29.05.2015 05:50 6,0 C 5,8 C 76 % 1014,2 hPa 0,0 mm 0,0 km/h (0 Bft) NW 315 2,1 C 0,0 km/h (0 Bft)
29.05.2015 05:55 6,3 C 6,1 C 77 % 1014,2 hPa 0,0 mm 0,0 km/h (0 Bft) N-NW 337 2,6 C 0,0 km/h (0 Bft)
29.05.2015 06:00 6,5 C 6,4 C 77 % 1013,9 hPa 0,0 mm 0,0 km/h (0 Bft) NW 315 2,8 C 0,0 km/h (0 Bft)
29.05.2015 06:05 6,6 C 6,7 C 74 % 1013,9 hPa 0,0 mm 0,0 km/h (0 Bft) NW 315 2,3 C 0,0 km/h (0 Bft)
29.05.2015 06:10 6,7 C 7,4 C 74 % 1013,9 hPa 0,0 mm 0,0 km/h (0 Bft) NW 315 2,4 C 0,0 km/h (0 Bft)
29.05.2015 06:15 7,0 C 7,9 C 74 % 1013,9 hPa 0,0 mm 0,0 km/h (0 Bft) NW 315 2,7 C 0,0 km/h (0 Bft)
29.05.2015 06:20 7,1 C 8,2 C 73 % 1013,7 hPa 0,0 mm 0,0 km/h (0 Bft) NW 315 2,6 C 0,0 km/h (0 Bft)
29.05.2015 06:25 7,2 C 8,1 C 73 % 1013,7 hPa 0,0 mm 0,0 km/h (0 Bft) NW 315 2,7 C 0,0 km/h (0 Bft)
29.05.2015 06:30 7,3 C 8,3 C 73 % 1013,7 hPa 0,0 mm 0,0 km/h (0 Bft) O-SO 112 2,8 C 0,0 km/h (0 Bft)
29.05.2015 06:35 7,4 C 8,4 C 73 % 1013,7 hPa 0,0 mm 0,0 km/h (0 Bft) O-SO 112 2,9 C 0,0 km/h (0 Bft)
29.05.2015 06:40 7,5 C 8,4 C 73 % 1014,1 hPa 0,0 mm 0,0 km/h (0 Bft) O-SO 112 3,0 C 0,0 km/h (0 Bft)
29.05.2015 06:45 7,6 C 8,4 C 73 % 1014,1 hPa 0,0 mm 0,0 km/h (0 Bft) O-SO 112 3,1 C 0,0 km/h (0 Bft)
29.05.2015 06:50 7,7 C 8,7 C 73 % 1014,1 hPa 0,0 mm 0,0 km/h (0 Bft) S-SO 157 3,2 C 0,0 km/h (0 Bft)
29.05.2015 06:55 8,2 C 10,2 C 73 % 1014,1 hPa 0,0 mm 0,0 km/h (0 Bft) SW 225 3,7 C 0,0 km/h (0 Bft)
29.05.2015 07:00 9,6 C 13,5 C 73 % 1014,1 hPa 0,0 mm 0,0 km/h (0 Bft) W-NW 292 5,0 C 0,0 km/h (0 Bft)
29.05.2015 07:05 10,1 C 14,9 C 72 % 1014,1 hPa 0,0 mm 0,0 km/h (0 Bft) NW 315 5,3 C 0,0 km/h (0 Bft)
29.05.2015 07:10 10,8 C 16,9 C 70 % 1014,1 hPa 0,0 mm 0,0 km/h (0 Bft) NW 315 5,6 C 0,0 km/h (0 Bft)
29.05.2015 07:15 11,3 C 18,2 C 69 % 1014,1 hPa 0,0 mm 0,0 km/h (0 Bft) NW 315 5,8 C 0,0 km/h (0 Bft)
29.05.2015 07:20 12,0 C 19,5 C 68 % 1014,1 hPa 0,0 mm 0,0 km/h (0 Bft) NW 315 6,3 C 0,0 km/h (0 Bft)
29.05.2015 07:25 12,1 C 20,6 C 67 % 1014,1 hPa 0,0 mm 0,0 km/h (0 Bft) NW 315 6,2 C 0,0 km/h (0 Bft)
29.05.2015 07:30 13,1 C 21,5 C 66 % 1014,1 hPa 0,0 mm 0,0 km/h (0 Bft) NW 315 6,9 C 0,0 km/h (0 Bft)
29.05.2015 07:35 13,5 C 21,7 C 65 % 1014,1 hPa 0,0 mm 0,0 km/h (0 Bft) NW 315 7,1 C 0,0 km/h (0 Bft)
29.05.2015 07:40 14,1 C 22,2 C 64 % 1014,2 hPa 0,0 mm 0,0 km/h (0 Bft) SW 225 7,4 C 0,0 km/h (0 Bft)
29.05.2015 07:45 14,3 C 22,2 C 63 % 1014,2 hPa 0,0 mm 0,0 km/h (0 Bft) SW 225 7,4 C 0,0 km/h (0 Bft)
29.05.2015 07:50 14,7 C 22,2 C 63 % 1014,2 hPa 0,0 mm 0,0 km/h (0 Bft) SW 225 7,7 C 0,0 km/h (0 Bft)
29.05.2015 07:55 15,2 C 22,2 C 62 % 1014,2 hPa 0,0 mm 0,0 km/h (0 Bft) SW 225 8,0 C 0,0 km/h (0 Bft)
29.05.2015 08:00 15,8 C 25,3 C 61 % 1013,7 hPa 0,0 mm 0,0 km/h (0 Bft) N-NW 337 8,3 C 0,0 km/h (0 Bft)
29.05.2015 08:05 15,9 C 25,5 C 60 % 1013,7 hPa 0,0 mm 0,0 km/h (0 Bft) N-NW 337 8,1 C 0,0 km/h (0 Bft)
29.05.2015 08:10 16,2 C 26,7 C 59 % 1013,7 hPa 0,0 mm 0,0 km/h (0 Bft) N-NW 337 8,2 C 0,0 km/h (0 Bft)
29.05.2015 08:15 16,5 C 27,1 C 58 % 1013,7 hPa 0,0 mm 0,0 km/h (0 Bft) N-NW 337 8,2 C 0,0 km/h (0 Bft)
29.05.2015 08:20 16,6 C 27,2 C 58 % 1013,8 hPa 0,0 mm 0,0 km/h (0 Bft) S-SO 157 8,3 C 0,0 km/h (0 Bft)
29.05.2015 08:25 16,6 C 27,6 C 58 % 1013,8 hPa 0,0 mm 0,0 km/h (0 Bft) SO 135 8,3 C 0,0 km/h (0 Bft)
29.05.2015 08:30 16,9 C 27,2 C 57 % 1013,8 hPa 0,0 mm 0,0 km/h (0 Bft) NO 45 8,3 C 0,0 km/h (0 Bft)
29.05.2015 08:35 17,2 C 27,0 C 57 % 1013,8 hPa 0,0 mm 0,0 km/h (0 Bft) NO 45 8,6 C 0,0 km/h (0 Bft)
29.05.2015 08:40 17,5 C 27,1 C 55 % 1013,9 hPa 0,0 mm 0,5 km/h (0 Bft) O-NO 67 8,4 C 4,1 km/h (1 Bft)
29.05.2015 08:45 17,9 C 26,7 C 56 % 1013,9 hPa 0,0 mm 0,5 km/h (0 Bft) O-SO 112 9,0 C 0,0 km/h (0 Bft)
29.05.2015 08:50 17,8 C 25,3 C 53 % 1013,9 hPa 0,0 mm 3,6 km/h (1 Bft) O-NO 67 8,1 C 6,0 km/h (2 Bft)
29.05.2015 08:55 17,7 C 24,4 C 52 % 1013,9 hPa 0,0 mm 5,7 km/h (1 Bft) O-NO 67 7,7 C 7,0 km/h (2 Bft)
29.05.2015 09:00 18,2 C 24,3 C 51 % 1013,8 hPa 0,0 mm 5,2 km/h (1 Bft) O-NO 67 7,9 C 5,4 km/h (1 Bft)
29.05.2015 09:05 18,2 C 24,4 C 50 % 1013,8 hPa 0,0 mm 3,6 km/h (1 Bft) O 90 7,6 C 4,1 km/h (1 Bft)
29.05.2015 09:10 18,6 C 24,8 C 49 % 1013,8 hPa 0,0 mm 2,8 km/h (1 Bft) NO 45 7,7 C 5,7 km/h (1 Bft)
29.05.2015 09:15 18,6 C 24,6 C 49 % 1013,8 hPa 0,0 mm 3,4 km/h (1 Bft) N-NO 22 7,7 C 3,1 km/h (1 Bft)
29.05.2015 09:20 18,7 C 24,9 C 49 % 1013,7 hPa 0,0 mm 4,4 km/h (1 Bft) NO 45 7,8 C 2,8 km/h (1 Bft)
29.05.2015 09:25 18,8 C 25,0 C 49 % 1013,7 hPa 0,0 mm 3,9 km/h (1 Bft) N-NO 22 7,9 C 4,7 km/h (1 Bft)
29.05.2015 09:30 18,8 C 25,3 C 49 % 1013,7 hPa 0,0 mm 3,9 km/h (1 Bft) N-NO 22 7,9 C 4,7 km/h (1 Bft)
29.05.2015 09:35 19,1 C 25,6 C 49 % 1013,7 hPa 0,0 mm 4,1 km/h (1 Bft) N-NO 22 8,1 C 6,7 km/h (2 Bft)
29.05.2015 09:40 19,2 C 25,6 C 49 % 1013,8 hPa 0,0 mm 3,4 km/h (1 Bft) N-NO 22 8,2 C 0,0 km/h (0 Bft)
29.05.2015 09:45 19,3 C 25,5 C 49 % 1013,8 hPa 0,0 mm 3,4 km/h (1 Bft) O-NO 67 8,3 C 8,5 km/h (2 Bft)
29.05.2015 09:50 19,2 C 25,0 C 49 % 1013,8 hPa 0,0 mm 5,4 km/h (1 Bft) SO 135 8,2 C 10,6 km/h (2 Bft)
29.05.2015 09:55 19,1 C 24,5 C 48 % 1013,8 hPa 0,0 mm 7,0 km/h (2 Bft) N-NO 22 7,8 C 13,5 km/h (3 Bft)
29.05.2015 10:00 18,9 C 24,1 C 46 % 1013,8 hPa 0,0 mm 8,0 km/h (2 Bft) O-NO 67 7,0 C 16,3 km/h (3 Bft)
29.05.2015 10:05 18,7 C 23,6 C 44 % 1013,8 hPa 0,0 mm 8,8 km/h (2 Bft) NO 45 6,2 C 11,4 km/h (2 Bft)
29.05.2015 10:10 18,5 C 23,1 C 43 % 1013,8 hPa 0,0 mm 9,6 km/h (2 Bft) NO 45 5,7 C 9,3 km/h (2 Bft)
29.05.2015 10:15 18,7 C 23,1 C 45 % 1013,8 hPa 0,0 mm 8,3 km/h (2 Bft) O-NO 67 6,5 C 18,4 km/h (3 Bft)
29.05.2015 10:20 19,0 C 23,8 C 44 % 1014,1 hPa 0,0 mm 6,5 km/h (2 Bft) O-NO 67 6,5 C 14,8 km/h (3 Bft)
29.05.2015 10:25 19,0 C 24,0 C 45 % 1014,1 hPa 0,0 mm 6,0 km/h (2 Bft) N-NO 22 6,8 C 6,5 km/h (2 Bft)
29.05.2015 10:30 19,5 C 24,8 C 44 % 1014,1 hPa 0,0 mm 7,3 km/h (2 Bft) N-NO 22 6,9 C 17,9 km/h (3 Bft)
29.05.2015 10:35 19,5 C 24,9 C 46 % 1014,1 hPa 0,0 mm 7,5 km/h (2 Bft) N-NO 22 7,6 C 11,4 km/h (2 Bft)
29.05.2015 10:40 19,5 C 24,9 C 45 % 1014,1 hPa 0,0 mm 7,5 km/h (2 Bft) N 360 7,2 C 4,1 km/h (1 Bft)
29.05.2015 10:45 19,5 C 25,0 C 45 % 1014,1 hPa 0,0 mm 8,0 km/h (2 Bft) NO 45 7,2 C 6,0 km/h (2 Bft)
29.05.2015 10:50 19,3 C 23,8 C 47 % 1014,1 hPa 0,0 mm 4,9 km/h (1 Bft) NW 315 7,7 C 5,4 km/h (1 Bft)
29.05.2015 10:55 19,3 C 23,6 C 47 % 1014,1 hPa 0,0 mm 3,6 km/h (1 Bft) N-NO 22 7,7 C 3,6 km/h (1 Bft)
29.05.2015 11:00 19,2 C 23,0 C 46 % 1014,1 hPa 0,0 mm 3,6 km/h (1 Bft) N-NO 22 7,3 C 6,5 km/h (2 Bft)
29.05.2015 11:05 19,2 C 22,6 C 46 % 1014,1 hPa 0,0 mm 2,6 km/h (1 Bft) N-NO 22 7,3 C 2,6 km/h (1 Bft)
29.05.2015 11:10 19,0 C 22,1 C 46 % 1014,1 hPa 0,0 mm 3,4 km/h (1 Bft) NO 45 7,1 C 5,4 km/h (1 Bft)
29.05.2015 11:15 18,9 C 22,0 C 46 % 1014,1 hPa 0,0 mm 4,1 km/h (1 Bft) O-NO 67 7,0 C 5,7 km/h (1 Bft)
29.05.2015 11:20 19,1 C 22,3 C 46 % 1014,0 hPa 0,0 mm 3,9 km/h (1 Bft) NO 45 7,2 C 6,5 km/h (2 Bft)
29.05.2015 11:25 19,4 C 23,4 C 46 % 1014,0 hPa 0,0 mm 3,6 km/h (1 Bft) NW 315 7,5 C 9,1 km/h (2 Bft)
29.05.2015 11:30 19,4 C 24,1 C 46 % 1014,0 hPa 0,0 mm 5,2 km/h (1 Bft) N-NW 337 7,5 C 0,0 km/h (0 Bft)
29.05.2015 11:35 19,4 C 24,2 C 46 % 1014,0 hPa 0,0 mm 3,4 km/h (1 Bft) W-SW 247 7,5 C 4,4 km/h (1 Bft)
29.05.2015 11:40 19,3 C 23,8 C 46 % 1013,9 hPa 0,0 mm 2,6 km/h (1 Bft) SO 135 7,4 C 0,0 km/h (0 Bft)
29.05.2015 11:45 19,2 C 23,2 C 47 % 1013,9 hPa 0,0 mm 4,7 km/h (1 Bft) N-NW 337 7,6 C 14,5 km/h (3 Bft)
29.05.2015 11:50 18,8 C 21,9 C 48 % 1013,9 hPa 0,0 mm 6,5 km/h (2 Bft) N-NO 22 7,6 C 5,4 km/h (1 Bft)
29.05.2015 11:55 18,8 C 21,3 C 49 % 1013,9 hPa 0,0 mm 6,5 km/h (2 Bft) N-NW 337 7,9 C 5,7 km/h (1 Bft)
29.05.2015 12:00 18,7 C 20,7 C 49 % 1014,3 hPa 0,0 mm 3,4 km/h (1 Bft) NO 45 7,8 C 0,0 km/h (0 Bft)
29.05.2015 12:05 18,6 C 20,6 C 48 % 1014,3 hPa 0,0 mm 3,1 km/h (1 Bft) NO 45 7,4 C 4,9 km/h (1 Bft)
29.05.2015 12:10 18,8 C 21,0 C 49 % 1014,3 hPa 0,0 mm 0,8 km/h (0 Bft) W-NW 292 7,9 C 6,2 km/h (2 Bft)
29.05.2015 12:15 19,3 C 21,4 C 48 % 1014,3 hPa 0,0 mm 2,1 km/h (1 Bft) NW 315 8,0 C 3,9 km/h (1 Bft)
29.05.2015 12:20 20,0 C 23,8 C 47 % 1013,4 hPa 0,0 mm 3,6 km/h (1 Bft) O-NO 67 8,3 C 0,0 km/h (0 Bft)
29.05.2015 12:25 19,8 C 24,3 C 48 % 1013,4 hPa 0,0 mm 3,4 km/h (1 Bft) NW 315 8,5 C 6,0 km/h (2 Bft)
29.05.2015 12:30 19,5 C 23,7 C 49 % 1013,4 hPa 0,0 mm 3,1 km/h (1 Bft) NW 315 8,5 C 7,5 km/h (2 Bft)
29.05.2015 12:35 19,5 C 23,2 C 49 % 1013,4 hPa 0,0 mm 3,6 km/h (1 Bft) N 360 8,5 C 7,8 km/h (2 Bft)
29.05.2015 12:40 19,5 C 22,7 C 49 % 1013,6 hPa 0,0 mm 4,1 km/h (1 Bft) NW 315 8,5 C 4,4 km/h (1 Bft)
29.05.2015 12:45 19,6 C 22,9 C 49 % 1013,6 hPa 0,0 mm 3,1 km/h (1 Bft) NW 315 8,6 C 5,2 km/h (1 Bft)
29.05.2015 12:50 20,0 C 23,5 C 48 % 1013,6 hPa 0,0 mm 2,1 km/h (1 Bft) W 270 8,7 C 0,0 km/h (0 Bft)
29.05.2015 12:55 20,3 C 23,5 C 47 % 1013,6 hPa 0,0 mm 3,1 km/h (1 Bft) O-NO 67 8,6 C 10,1 km/h (2 Bft)
29.05.2015 13:00 20,4 C 23,8 C 47 % 1013,2 hPa 0,0 mm 2,8 km/h (1 Bft) NO 45 8,7 C 3,6 km/h (1 Bft)
29.05.2015 13:05 20,5 C 24,6 C 46 % 1013,2 hPa 0,0 mm 4,7 km/h (1 Bft) NW 315 8,5 C 7,5 km/h (2 Bft)
29.05.2015 13:10 21,0 C 25,4 C 47 % 1013,2 hPa 0,0 mm 5,4 km/h (1 Bft) W-NW 292 9,3 C 7,3 km/h (2 Bft)
29.05.2015 13:15 21,2 C 25,9 C 46 % 1013,2 hPa 0,0 mm 4,4 km/h (1 Bft) SW 225 9,1 C 6,5 km/h (2 Bft)
29.05.2015 13:20 20,8 C 26,0 C 45 % 1012,9 hPa 0,0 mm 3,4 km/h (1 Bft) W-NW 292 8,4 C 5,7 km/h (1 Bft)
29.05.2015 13:25 20,8 C 25,3 C 45 % 1012,9 hPa 0,0 mm 5,4 km/h (1 Bft) N-NO 22 8,4 C 7,0 km/h (2 Bft)
29.05.2015 13:30 20,9 C 25,0 C 44 % 1012,9 hPa 0,0 mm 7,3 km/h (2 Bft) SW 225 8,2 C 11,1 km/h (2 Bft)
29.05.2015 13:35 21,3 C 25,2 C 44 % 1012,9 hPa 0,0 mm 6,5 km/h (2 Bft) W-SW 247 8,5 C 4,9 km/h (1 Bft)
29.05.2015 13:40 21,7 C 25,7 C 45 % 1012,8 hPa 0,0 mm 6,5 km/h (2 Bft) SW 225 9,2 C 7,3 km/h (2 Bft)
29.05.2015 13:45 21,8 C 25,8 C 44 % 1012,8 hPa 0,0 mm 6,0 km/h (2 Bft) NW 315 9,0 C 14,5 km/h (3 Bft)
29.05.2015 13:50 21,8 C 25,8 C 44 % 1012,8 hPa 0,0 mm 6,2 km/h (2 Bft) N-NO 22 9,0 C 6,7 km/h (2 Bft)
29.05.2015 13:55 21,8 C 26,0 C 44 % 1012,8 hPa 0,0 mm 6,5 km/h (2 Bft) N-NW 337 9,0 C 4,1 km/h (1 Bft)
29.05.2015 14:00 21,8 C 25,6 C 44 % 1012,5 hPa 0,0 mm 6,2 km/h (2 Bft) N-NW 337 9,0 C 4,7 km/h (1 Bft)
29.05.2015 14:05 21,8 C 25,5 C 44 % 1012,5 hPa 0,0 mm 6,7 km/h (2 Bft) NW 315 9,0 C 7,0 km/h (2 Bft)
29.05.2015 14:10 21,8 C 26,0 C 44 % 1012,5 hPa 0,0 mm 4,9 km/h (1 Bft) W 270 9,0 C 4,7 km/h (1 Bft)
29.05.2015 14:15 21,8 C 26,6 C 44 % 1012,5 hPa 0,0 mm 3,9 km/h (1 Bft) S-SO 157 9,0 C 5,2 km/h (1 Bft)
29.05.2015 14:20 21,8 C 27,1 C 44 % 1012,2 hPa 0,0 mm 3,6 km/h (1 Bft) N-NW 337 9,0 C 5,2 km/h (1 Bft)
29.05.2015 14:25 21,8 C 27,6 C 44 % 1012,2 hPa 0,0 mm 3,4 km/h (1 Bft) W-NW 292 9,0 C 5,4 km/h (1 Bft)
29.05.2015 14:30 21,8 C 27,8 C 44 % 1012,2 hPa 0,0 mm 4,4 km/h (1 Bft) W 270 9,0 C 8,5 km/h (2 Bft)
29.05.2015 14:35 22,6 C 27,8 C 41 % 1012,2 hPa 0,0 mm 4,7 km/h (1 Bft) NO 45 8,7 C 8,8 km/h (2 Bft)
29.05.2015 14:40 22,0 C 27,2 C 39 % 1011,9 hPa 0,0 mm 5,7 km/h (1 Bft) N-NO 22 7,4 C 7,0 km/h (2 Bft)
29.05.2015 14:45 21,9 C 27,0 C 40 % 1011,9 hPa 0,0 mm 6,0 km/h (2 Bft) NO 45 7,7 C 8,0 km/h (2 Bft)
29.05.2015 14:50 22,1 C 26,7 C 39 % 1011,9 hPa 0,0 mm 6,5 km/h (2 Bft) W 270 7,5 C 8,8 km/h (2 Bft)
29.05.2015 14:55 22,1 C 26,8 C 40 % 1011,9 hPa 0,0 mm 6,5 km/h (2 Bft) NW 315 7,9 C 3,6 km/h (1 Bft)
29.05.2015 15:00 22,6 C 27,2 C 41 % 1011,6 hPa 0,0 mm 4,7 km/h (1 Bft) SO 135 8,7 C 0,0 km/h (0 Bft)
29.05.2015 15:05 22,8 C 27,5 C 41 % 1011,6 hPa 0,0 mm 4,1 km/h (1 Bft) W-SW 247 8,9 C 2,8 km/h (1 Bft)
29.05.2015 15:10 23,2 C 27,8 C 40 % 1011,6 hPa 0,0 mm 3,6 km/h (1 Bft) W-NW 292 8,8 C 8,5 km/h (2 Bft)
29.05.2015 15:15 23,2 C 27,4 C 39 % 1011,6 hPa 0,0 mm 6,0 km/h (2 Bft) NW 315 8,5 C 13,2 km/h (3 Bft)
29.05.2015 15:20 23,2 C 27,2 C 39 % 1011,4 hPa 0,0 mm 7,5 km/h (2 Bft) NW 315 8,5 C 8,0 km/h (2 Bft)
29.05.2015 15:25 23,0 C 27,2 C 38 % 1011,4 hPa 0,0 mm 6,2 km/h (2 Bft) NW 315 7,9 C 10,6 km/h (2 Bft)
29.05.2015 15:30 23,1 C 27,2 C 38 % 1011,4 hPa 0,0 mm 6,2 km/h (2 Bft) NW 315 8,0 C 10,1 km/h (2 Bft)
29.05.2015 15:35 22,9 C 26,8 C 39 % 1011,4 hPa 0,0 mm 8,3 km/h (2 Bft) NW 315 8,2 C 20,7 km/h (4 Bft)
29.05.2015 15:40 22,9 C 26,2 C 39 % 1011,4 hPa 0,0 mm 9,1 km/h (2 Bft) N-NW 337 8,2 C 5,2 km/h (1 Bft)
29.05.2015 15:45 23,0 C 26,6 C 37 % 1011,4 hPa 0,0 mm 8,0 km/h (2 Bft) N-NO 22 7,5 C 20,7 km/h (4 Bft)
29.05.2015 15:50 22,5 C 26,8 C 38 % 1011,4 hPa 0,0 mm 7,0 km/h (2 Bft) N-NW 337 7,5 C 16,1 km/h (3 Bft)
29.05.2015 15:55 22,3 C 26,7 C 38 % 1011,4 hPa 0,0 mm 7,8 km/h (2 Bft) O-NO 67 7,3 C 21,2 km/h (4 Bft)
29.05.2015 16:00 21,9 C 26,2 C 38 % 1011,1 hPa 0,0 mm 8,0 km/h (2 Bft) O-SO 112 6,9 C 6,5 km/h (2 Bft)
29.05.2015 16:05 21,6 C 26,3 C 38 % 1011,1 hPa 0,0 mm 7,0 km/h (2 Bft) O-NO 67 6,7 C 12,9 km/h (3 Bft)
29.05.2015 16:10 21,6 C 26,4 C 39 % 1011,1 hPa 0,0 mm 7,0 km/h (2 Bft) NW 315 7,0 C 5,2 km/h (1 Bft)
29.05.2015 16:15 21,7 C 26,7 C 39 % 1011,1 hPa 0,0 mm 7,3 km/h (2 Bft) NW 315 7,1 C 6,5 km/h (2 Bft)
29.05.2015 16:20 21,5 C 27,1 C 40 % 1010,9 hPa 0,0 mm 6,2 km/h (2 Bft) NW 315 7,3 C 8,3 km/h (2 Bft)
29.05.2015 16:25 21,4 C 27,2 C 40 % 1010,9 hPa 0,0 mm 5,4 km/h (1 Bft) NW 315 7,2 C 4,7 km/h (1 Bft)
29.05.2015 16:30 21,3 C 27,6 C 41 % 1010,9 hPa 0,0 mm 4,7 km/h (1 Bft) S-SO 157 7,5 C 3,4 km/h (1 Bft)
29.05.2015 16:35 21,2 C 27,8 C 40 % 1010,9 hPa 0,0 mm 4,4 km/h (1 Bft) W 270 7,1 C 10,9 km/h (2 Bft)
29.05.2015 16:40 21,2 C 27,4 C 40 % 1010,8 hPa 0,0 mm 7,0 km/h (2 Bft) NW 315 7,1 C 21,0 km/h (4 Bft)
29.05.2015 16:45 21,2 C 26,9 C 39 % 1010,8 hPa 0,0 mm 9,3 km/h (2 Bft) NW 315 6,7 C 10,6 km/h (2 Bft)
29.05.2015 16:50 21,2 C 26,5 C 40 % 1010,8 hPa 0,0 mm 10,1 km/h (2 Bft) N-NW 337 7,1 C 18,4 km/h (3 Bft)
29.05.2015 16:55 21,1 C 26,2 C 40 % 1010,8 hPa 0,0 mm 8,8 km/h (2 Bft) SO 135 7,0 C 0,0 km/h (0 Bft)
29.05.2015 17:00 21,1 C 24,8 C 41 % 1010,5 hPa 0,0 mm 7,8 km/h (2 Bft) N-NW 337 7,3 C 8,3 km/h (2 Bft)
29.05.2015 17:05 21,2 C 23,7 C 41 % 1010,5 hPa 0,0 mm 6,2 km/h (2 Bft) N-NW 337 7,4 C 8,8 km/h (2 Bft)
29.05.2015 17:10 21,2 C 22,7 C 41 % 1010,5 hPa 0,0 mm 9,3 km/h (2 Bft) W-NW 292 7,4 C 6,0 km/h (2 Bft)
29.05.2015 17:15 21,0 C 22,2 C 41 % 1010,5 hPa 0,0 mm 10,9 km/h (2 Bft) W 270 7,2 C 11,1 km/h (2 Bft)
29.05.2015 17:20 20,9 C 21,7 C 41 % 1010,6 hPa 0,0 mm 8,8 km/h (2 Bft) N-NO 22 7,2 C 9,3 km/h (2 Bft)
29.05.2015 17:25 21,0 C 21,7 C 41 % 1010,6 hPa 0,0 mm 8,3 km/h (2 Bft) NW 315 7,2 C 7,5 km/h (2 Bft)
29.05.2015 17:30 21,0 C 21,7 C 41 % 1010,6 hPa 0,0 mm 9,6 km/h (2 Bft) NW 315 7,2 C 12,4 km/h (3 Bft)
29.05.2015 17:35 20,9 C 21,5 C 41 % 1010,6 hPa 0,0 mm 10,1 km/h (2 Bft) W-NW 292 7,2 C 18,6 km/h (3 Bft)
29.05.2015 17:40 21,0 C 21,7 C 41 % 1010,6 hPa 0,0 mm 10,4 km/h (2 Bft) NW 315 7,2 C 16,8 km/h (3 Bft)
29.05.2015 17:45 20,9 C 21,7 C 41 % 1010,6 hPa 0,0 mm 10,6 km/h (2 Bft) NW 315 7,2 C 12,9 km/h (3 Bft)
29.05.2015 17:50 20,8 C 21,6 C 41 % 1010,6 hPa 0,0 mm 12,9 km/h (3 Bft) NW 315 7,1 C 14,5 km/h (3 Bft)
29.05.2015 17:55 20,8 C 21,6 C 41 % 1010,6 hPa 0,0 mm 12,9 km/h (3 Bft) NW 315 7,1 C 26,7 km/h (4 Bft)
29.05.2015 18:00 20,7 C 21,5 C 41 % 1010,8 hPa 0,0 mm 10,1 km/h (2 Bft) NW 315 7,0 C 8,0 km/h (2 Bft)
29.05.2015 18:05 20,7 C 21,4 C 42 % 1010,8 hPa 0,0 mm 9,8 km/h (2 Bft) N 360 7,3 C 9,3 km/h (2 Bft)
29.05.2015 18:10 20,6 C 21,2 C 42 % 1010,8 hPa 0,0 mm 8,8 km/h (2 Bft) N-NW 337 7,2 C 9,6 km/h (2 Bft)
29.05.2015 18:15 20,6 C 21,2 C 42 % 1010,8 hPa 0,0 mm 8,5 km/h (2 Bft) W 270 7,2 C 15,3 km/h (3 Bft)
29.05.2015 18:20 20,5 C 21,0 C 43 % 1010,5 hPa 0,0 mm 9,8 km/h (2 Bft) W-NW 292 7,5 C 14,8 km/h (3 Bft)
29.05.2015 18:25 20,4 C 21,0 C 42 % 1010,5 hPa 0,0 mm 10,1 km/h (2 Bft) N-NW 337 7,1 C 10,4 km/h (2 Bft)
29.05.2015 18:30 20,4 C 21,5 C 43 % 1010,5 hPa 0,0 mm 9,3 km/h (2 Bft) NW 315 7,4 C 17,6 km/h (3 Bft)
29.05.2015 18:35 20,0 C 21,4 C 42 % 1010,5 hPa 0,0 mm 10,4 km/h (2 Bft) NW 315 6,7 C 11,9 km/h (2 Bft)
29.05.2015 18:40 20,1 C 21,6 C 43 % 1010,5 hPa 0,0 mm 11,4 km/h (2 Bft) W-NW 292 7,1 C 11,1 km/h (2 Bft)
29.05.2015 18:45 20,0 C 22,2 C 43 % 1010,5 hPa 0,0 mm 10,1 km/h (2 Bft) NW 315 7,0 C 6,7 km/h (2 Bft)
29.05.2015 18:50 20,1 C 22,6 C 44 % 1010,5 hPa 0,0 mm 8,5 km/h (2 Bft) N-NW 337 7,5 C 8,5 km/h (2 Bft)
29.05.2015 18:55 20,2 C 23,3 C 44 % 1010,5 hPa 0,0 mm 7,3 km/h (2 Bft) W-NW 292 7,6 C 9,1 km/h (2 Bft)
29.05.2015 19:00 19,9 C 23,2 C 44 % 1010,6 hPa 0,0 mm 6,2 km/h (2 Bft) NW 315 7,3 C 8,5 km/h (2 Bft)
29.05.2015 19:05 19,8 C 22,1 C 45 % 1010,6 hPa 0,0 mm 6,0 km/h (2 Bft) W-SW 247 7,5 C 14,0 km/h (3 Bft)
29.05.2015 19:10 19,5 C 21,1 C 45 % 1010,6 hPa 0,0 mm 7,5 km/h (2 Bft) N-NW 337 7,2 C 10,9 km/h (2 Bft)
29.05.2015 19:15 19,5 C 21,2 C 45 % 1010,6 hPa 0,0 mm 8,3 km/h (2 Bft) N-NW 337 7,2 C 13,7 km/h (3 Bft)
29.05.2015 19:20 19,5 C 21,1 C 46 % 1010,6 hPa 0,0 mm 8,3 km/h (2 Bft) W 270 7,6 C 9,8 km/h (2 Bft)
29.05.2015 19:25 19,5 C 21,5 C 46 % 1010,6 hPa 0,0 mm 8,0 km/h (2 Bft) NW 315 7,6 C 14,0 km/h (3 Bft)
29.05.2015 19:30 19,2 C 21,3 C 46 % 1010,6 hPa 0,0 mm 7,5 km/h (2 Bft) NW 315 7,3 C 7,5 km/h (2 Bft)
29.05.2015 19:35 18,9 C 20,5 C 46 % 1010,6 hPa 0,0 mm 6,7 km/h (2 Bft) NW 315 7,0 C 10,6 km/h (2 Bft)
29.05.2015 19:40 18,6 C 20,0 C 47 % 1010,6 hPa 0,0 mm 5,4 km/h (1 Bft) NW 315 7,1 C 7,3 km/h (2 Bft)
29.05.2015 19:45 18,3 C 19,3 C 47 % 1010,6 hPa 0,0 mm 4,1 km/h (1 Bft) W-NW 292 6,8 C 9,8 km/h (2 Bft)
29.05.2015 19:50 18,1 C 18,6 C 48 % 1010,6 hPa 0,0 mm 2,3 km/h (1 Bft) NW 315 6,9 C 11,7 km/h (2 Bft)
29.05.2015 19:55 17,9 C 18,3 C 49 % 1010,6 hPa 0,0 mm 2,1 km/h (1 Bft) SW 225 7,0 C 2,6 km/h (1 Bft)
29.05.2015 20:00 17,7 C 17,9 C 49 % 1010,8 hPa 0,0 mm 1,0 km/h (0 Bft) SW 225 6,9 C 2,8 km/h (1 Bft)
29.05.2015 20:05 17,6 C 17,8 C 49 % 1010,8 hPa 0,0 mm 0,3 km/h (0 Bft) N-NW 337 6,8 C 0,0 km/h (0 Bft)
29.05.2015 20:10 17,6 C 17,7 C 49 % 1010,8 hPa 0,0 mm 0,8 km/h (0 Bft) SW 225 6,8 C 3,9 km/h (1 Bft)
29.05.2015 20:15 17,6 C 17,6 C 49 % 1010,8 hPa 0,0 mm 1,3 km/h (1 Bft) S 180 6,8 C 2,8 km/h (1 Bft)
29.05.2015 20:20 17,5 C 17,6 C 50 % 1010,9 hPa 0,0 mm 3,1 km/h (1 Bft) S 180 7,0 C 7,3 km/h (2 Bft)
29.05.2015 20:25 17,5 C 17,6 C 50 % 1010,9 hPa 0,0 mm 4,1 km/h (1 Bft) S-SO 157 7,0 C 0,0 km/h (0 Bft)
29.05.2015 20:30 17,2 C 17,5 C 50 % 1010,9 hPa 0,0 mm 2,6 km/h (1 Bft) S 180 6,7 C 0,0 km/h (0 Bft)
29.05.2015 20:35 16,7 C 17,1 C 53 % 1010,9 hPa 0,0 mm 0,8 km/h (0 Bft) S-SO 157 7,1 C 0,0 km/h (0 Bft)
29.05.2015 20:40 15,9 C 16,6 C 58 % 1010,8 hPa 0,0 mm 1,3 km/h (1 Bft) S-SW 202 7,6 C 5,7 km/h (1 Bft)
29.05.2015 20:45 15,8 C 16,4 C 58 % 1010,8 hPa 0,0 mm 3,1 km/h (1 Bft) S 180 7,6 C 6,7 km/h (2 Bft)
29.05.2015 20:50 15,8 C 16,4 C 58 % 1010,8 hPa 0,0 mm 3,1 km/h (1 Bft) SO 135 7,6 C 0,0 km/h (0 Bft)
29.05.2015 20:55 15,8 C 16,4 C 58 % 1010,8 hPa 0,0 mm 1,0 km/h (0 Bft) S 180 7,6 C 0,0 km/h (0 Bft)
29.05.2015 21:00 15,7 C 16,1 C 58 % 1010,8 hPa 0,0 mm 0,0 km/h (0 Bft) S-SO 157 7,5 C 0,0 km/h (0 Bft)
29.05.2015 21:05 15,6 C 15,6 C 59 % 1010,8 hPa 0,0 mm 0,3 km/h (0 Bft) S-SO 157 7,6 C 0,0 km/h (0 Bft)
29.05.2015 21:10 14,9 C 15,1 C 62 % 1010,8 hPa 0,0 mm 2,3 km/h (1 Bft) SO 135 7,7 C 3,9 km/h (1 Bft)
29.05.2015 21:15 14,9 C 14,7 C 62 % 1010,8 hPa 0,0 mm 3,6 km/h (1 Bft) SW 225 7,7 C 0,0 km/h (0 Bft)
29.05.2015 21:20 14,6 C 14,2 C 63 % 1011,5 hPa 0,0 mm 4,7 km/h (1 Bft) S 180 7,6 C 8,8 km/h (2 Bft)
29.05.2015 21:25 14,0 C 13,5 C 68 % 1011,5 hPa 0,0 mm 4,1 km/h (1 Bft) SO 135 8,2 C 0,0 km/h (0 Bft)
29.05.2015 21:30 13,1 C 12,7 C 70 % 1011,5 hPa 0,0 mm 2,1 km/h (1 Bft) O-NO 67 7,8 C 0,0 km/h (0 Bft)
29.05.2015 21:35 12,8 C 12,3 C 72 % 1011,5 hPa 0,0 mm 0,0 km/h (0 Bft) SO 135 7,9 C 0,0 km/h (0 Bft)
29.05.2015 21:40 12,2 C 11,8 C 73 % 1011,3 hPa 0,0 mm 0,0 km/h (0 Bft) NO 45 7,5 C 0,0 km/h (0 Bft)
29.05.2015 21:45 12,0 C 11,5 C 73 % 1011,3 hPa 0,0 mm 0,0 km/h (0 Bft) SO 135 7,3 C 0,0 km/h (0 Bft)
29.05.2015 21:50 11,5 C 11,0 C 72 % 1011,3 hPa 0,0 mm 0,0 km/h (0 Bft) O-NO 67 6,6 C 0,0 km/h (0 Bft)
29.05.2015 21:55 11,4 C 10,9 C 72 % 1011,3 hPa 0,0 mm 0,0 km/h (0 Bft) NO 45 6,5 C 0,0 km/h (0 Bft)
29.05.2015 22:00 11,4 C 10,9 C 73 % 1011,2 hPa 0,0 mm 0,0 km/h (0 Bft) O 90 6,7 C 0,0 km/h (0 Bft)
29.05.2015 22:05 11,4 C 10,9 C 73 % 1011,2 hPa 0,0 mm 0,0 km/h (0 Bft) O 90 6,7 C 0,0 km/h (0 Bft)
29.05.2015 22:10 11,5 C 11,0 C 74 % 1011,2 hPa 0,0 mm 0,0 km/h (0 Bft) O 90 7,0 C 0,0 km/h (0 Bft)
29.05.2015 22:15 11,5 C 11,1 C 71 % 1011,2 hPa 0,0 mm 0,0 km/h (0 Bft) O-NO 67 6,4 C 0,0 km/h (0 Bft)
29.05.2015 22:20 11,6 C 11,3 C 72 % 1011,4 hPa 0,0 mm 0,3 km/h (0 Bft) N-NW 337 6,7 C 0,0 km/h (0 Bft)
29.05.2015 22:25 11,7 C 11,4 C 72 % 1011,4 hPa 0,0 mm 0,3 km/h (0 Bft) O-NO 67 6,8 C 0,0 km/h (0 Bft)
29.05.2015 22:30 11,8 C 11,5 C 72 % 1011,4 hPa 0,0 mm 0,3 km/h (0 Bft) W 270 6,9 C 0,0 km/h (0 Bft)
29.05.2015 22:35 12,0 C 11,8 C 72 % 1011,4 hPa 0,0 mm 1,6 km/h (1 Bft) W-SW 247 7,1 C 9,6 km/h (2 Bft)
29.05.2015 22:40 12,2 C 11,8 C 77 % 1011,8 hPa 0,7 mm 3,9 km/h (1 Bft) S 180 8,3 C 8,0 km/h (2 Bft)
29.05.2015 22:45 12,0 C 11,6 C 78 % 1011,8 hPa 0,0 mm 7,3 km/h (2 Bft) SW 225 8,3 C 18,9 km/h (3 Bft)
29.05.2015 22:50 11,7 C 11,3 C 82 % 1011,8 hPa 0,7 mm 8,8 km/h (2 Bft) S-SW 202 8,7 C 4,1 km/h (1 Bft)
29.05.2015 22:55 11,7 C 11,4 C 82 % 1011,8 hPa 0,7 mm 7,0 km/h (2 Bft) S-SW 202 8,7 C 3,1 km/h (1 Bft)
29.05.2015 23:00 11,6 C 11,3 C 80 % 1012,0 hPa 0,0 mm 4,9 km/h (1 Bft) SW 225 8,3 C 8,3 km/h (2 Bft)
29.05.2015 23:05 11,5 C 11,2 C 80 % 1012,0 hPa 0,0 mm 4,7 km/h (1 Bft) SW 225 8,2 C 5,2 km/h (1 Bft)
29.05.2015 23:10 11,2 C 11,0 C 82 % 1012,0 hPa 0,0 mm 2,6 km/h (1 Bft) O-SO 112 8,2 C 0,0 km/h (0 Bft)
29.05.2015 23:15 11,0 C 10,8 C 82 % 1012,0 hPa 0,0 mm 1,8 km/h (1 Bft) S-SO 157 8,0 C 0,0 km/h (0 Bft)
29.05.2015 23:20 11,0 C 10,8 C 82 % 1012,0 hPa 0,0 mm 0,5 km/h (0 Bft) SW 225 8,0 C 0,0 km/h (0 Bft)
29.05.2015 23:25 11,0 C 10,8 C 82 % 1012,0 hPa 0,0 mm 0,5 km/h (0 Bft) NW 315 8,0 C 7,8 km/h (2 Bft)
29.05.2015 23:30 11,3 C 11,0 C 84 % 1012,0 hPa 0,0 mm 3,6 km/h (1 Bft) SW 225 8,7 C 7,0 km/h (2 Bft)
29.05.2015 23:35 11,3 C 11,1 C 85 % 1012,0 hPa 0,7 mm 4,9 km/h (1 Bft) S 180 8,9 C 4,4 km/h (1 Bft)
29.05.2015 23:40 11,2 C 11,0 C 86 % 1012,9 hPa 0,0 mm 4,4 km/h (1 Bft) S-SO 157 8,9 C 2,6 km/h (1 Bft)
29.05.2015 23:45 11,1 C 10,9 C 86 % 1012,9 hPa 0,0 mm 4,4 km/h (1 Bft) S-SO 157 8,8 C 5,2 km/h (1 Bft)
29.05.2015 23:50 11,0 C 10,8 C 87 % 1012,9 hPa 0,0 mm 3,4 km/h (1 Bft) S-SO 157 8,9 C 3,9 km/h (1 Bft)
29.05.2015 23:55 11,0 C 10,8 C 88 % 1012,9 hPa 0,0 mm 3,1 km/h (1 Bft) SO 135 9,1 C 2,6 km/h (1 Bft)
_ Min-Zeit 05:35 05:20 15:45 18:55 - 22:15 - - 02:55 23:20
Minimum _ 5,9 C 5,7 C 37 % 1010,5 hPa - 0,0 km/h (0 Bft) - - 1,4 C 0,0 km/h (0 Bft)
_ Max-Zeit 15:20 16:35 23:55 00:35 23:35 17:55 - - 13:10 17:55
Maximum _ 23,2 C 27,8 C 88 % 1015,6 hPa 0,7 mm 12,9 km/h
NW (3 Bft)
- - 9,3 C 26,7 km/h
NW (4 Bft)
Durchschnitt _ 15,0 C 17,4 C 57 % 1013,0 hPa #2,7 mm 3,8 km/h (1 Bft) NW - 6,1 C 5,2 km/h (1 Bft)